createdAt,value
2018-09-10T00:01:26.286Z,18
2018-09-10T00:11:27.916Z,18
2018-09-10T00:21:29.529Z,18
2018-09-10T00:31:27.188Z,18
2018-09-10T00:41:27.424Z,17
2018-09-10T00:51:26.313Z,17
2018-09-10T01:01:27.194Z,17
2018-09-10T01:11:27.419Z,17
2018-09-10T01:21:29.687Z,17
2018-09-10T01:31:27.600Z,18
2018-09-10T01:41:27.610Z,17
2018-09-10T01:51:26.830Z,17
2018-09-10T02:01:28.394Z,17
2018-09-10T02:11:27.434Z,17
2018-09-10T02:21:28.384Z,17
2018-09-10T02:31:27.537Z,17
2018-09-10T02:41:27.779Z,16
2018-09-10T02:51:27.928Z,16
2018-09-10T03:01:28.472Z,16
2018-09-10T03:11:28.317Z,16
2018-09-10T03:21:28.150Z,16
2018-09-10T03:31:28.022Z,16
2018-09-10T03:41:27.979Z,16
2018-09-10T03:51:27.913Z,16
2018-09-10T04:01:27.908Z,16
2018-09-10T04:11:38.000Z,16
2018-09-10T04:21:27.072Z,16
2018-09-10T04:31:27.452Z,16
2018-09-10T04:41:27.632Z,16
2018-09-10T04:51:28.252Z,16
2018-09-10T05:01:27.439Z,16
2018-09-10T05:11:27.611Z,16
2018-09-10T05:21:27.966Z,16
2018-09-10T05:31:27.858Z,16
2018-09-10T05:41:26.740Z,16
2018-09-10T05:51:27.838Z,16
2018-09-10T06:01:28.539Z,16
2018-09-10T06:11:27.814Z,16
2018-09-10T06:21:27.541Z,16
2018-09-10T06:31:27.552Z,16
2018-09-10T06:41:27.815Z,17
2018-09-10T06:51:27.712Z,17
2018-09-10T07:01:27.567Z,17
2018-09-10T07:11:27.652Z,17
2018-09-10T07:21:28.396Z,17
2018-09-10T07:31:27.188Z,18
2018-09-10T07:41:29.645Z,18
2018-09-10T07:51:29.951Z,18
2018-09-10T08:01:27.521Z,18
2018-09-10T08:11:27.484Z,18
2018-09-10T08:21:26.957Z,18
2018-09-10T08:31:26.846Z,19
2018-09-10T08:41:28.295Z,19
2018-09-10T08:51:26.838Z,19
2018-09-10T09:01:28.480Z,20
2018-09-10T09:11:27.841Z,20
2018-09-10T09:21:27.939Z,20
2018-09-10T09:31:27.305Z,20
2018-09-10T09:41:28.396Z,21
2018-09-10T09:51:26.575Z,21
2018-09-10T10:01:27.076Z,21
2018-09-10T10:11:27.530Z,21
2018-09-10T10:21:26.905Z,21
2018-09-10T10:31:27.391Z,21
2018-09-10T10:41:26.664Z,22
2018-09-10T10:51:27.730Z,22
2018-09-10T11:01:26.942Z,22
2018-09-10T11:11:27.154Z,22
2018-09-10T11:21:27.221Z,22
2018-09-10T11:31:28.068Z,22
2018-09-10T11:41:28.374Z,22
2018-09-10T11:51:28.056Z,23
2018-09-10T12:01:28.460Z,23
2018-09-10T12:11:26.895Z,23
2018-09-10T12:21:27.286Z,23
2018-09-10T12:31:26.893Z,23
2018-09-10T12:41:26.901Z,22
2018-09-10T12:51:28.894Z,23
2018-09-10T13:01:27.598Z,23
2018-09-10T13:11:29.196Z,23
2018-09-10T13:21:28.174Z,23
2018-09-10T13:31:27.221Z,24
2018-09-10T13:41:28.602Z,23
2018-09-10T13:51:26.671Z,23
2018-09-10T14:01:30.154Z,23
2018-09-10T14:11:27.681Z,23
2018-09-10T14:21:26.810Z,23
2018-09-10T14:31:28.236Z,23
2018-09-10T14:41:27.217Z,23
2018-09-10T14:51:26.756Z,23
2018-09-10T15:01:26.856Z,23
2018-09-10T15:11:26.901Z,23
2018-09-10T15:21:27.012Z,23
2018-09-10T15:31:27.746Z,24
2018-09-10T15:41:26.874Z,24
2018-09-10T15:51:27.283Z,23
2018-09-10T16:01:27.716Z,22
2018-09-10T16:11:27.360Z,23
2018-09-10T16:21:27.337Z,23
2018-09-10T16:31:27.085Z,22
2018-09-10T16:41:27.120Z,22
2018-09-10T16:51:27.236Z,22
2018-09-10T17:01:26.544Z,22
2018-09-10T17:11:26.801Z,22
2018-09-10T17:21:27.080Z,22
2018-09-10T17:31:27.767Z,22
2018-09-10T17:41:27.072Z,21
2018-09-10T17:51:27.064Z,21
2018-09-10T18:01:28.675Z,21
2018-09-10T18:11:27.404Z,21
2018-09-10T18:21:26.629Z,21
2018-09-10T18:31:26.871Z,20
2018-09-10T18:41:27.491Z,20
2018-09-10T18:51:28.136Z,20
2018-09-10T19:01:28.376Z,20
2018-09-10T19:11:29.065Z,20
2018-09-10T19:21:26.633Z,20
2018-09-10T19:31:26.790Z,20
2018-09-10T19:41:27.875Z,20
2018-09-10T19:51:26.812Z,20
2018-09-10T20:01:27.263Z,20
2018-09-10T20:11:26.356Z,19
2018-09-10T20:21:27.191Z,20
2018-09-10T20:31:27.304Z,19
2018-09-10T20:41:27.746Z,18
2018-09-10T20:51:26.758Z,19
2018-09-10T21:01:27.533Z,19
2018-09-10T21:11:27.590Z,19
2018-09-10T21:21:28.592Z,18
2018-09-10T21:31:26.858Z,18
2018-09-10T21:41:28.587Z,19
2018-09-10T21:51:28.647Z,19
2018-09-10T22:01:27.961Z,18
2018-09-10T22:11:27.376Z,18
2018-09-10T22:21:26.631Z,18
2018-09-10T22:31:27.637Z,18
2018-09-10T22:41:26.891Z,18
2018-09-10T22:51:27.914Z,18
2018-09-10T23:01:29.004Z,18
2018-09-10T23:11:27.581Z,18
2018-09-10T23:21:27.037Z,18
2018-09-10T23:31:28.133Z,18
2018-09-10T23:41:28.349Z,18
2018-09-10T23:51:28.411Z,17
